Tuesday, January 15, 2019, 6:27 PM EST
Back to Local

KCON, Concord, Concord Municipal Airport

Location: Concord, NH, United States Lat: 43.195
Local Time: 6:27 PM EST (23:27 GMT) Lon: -71.501
Time Zone: US/Eastern Elev: 344 ft

Show me the last for .
Show Coded

Time T Td Feel RH Dir Speed Gust Alt SLP Vis Weather Sky Remarks
2019-01-15 17:51 24 18 18 77 300° 5 - 30.07 30.09 10 CLR None
2019-01-15 16:51 27 19 20 71 320° 6 - 30.06 30.07 10 CLR None
2019-01-15 15:51 29 20 16 68 310° 12 21 30.05 30.07 10 CLR None
2019-01-15 14:51 30 20 21 65 310° 10 - 30.05 30.07 10 CLR None
2019-01-15 13:51 30 20 19 65 300° 15 - 30.04 30.06 10 CLR None
2019-01-15 12:51 30 20 20 65 300° 13 - 30.04 30.06 10 CLR 6-hr Min Temp (1pm): 16.0°F
6-hr Max Temp (1pm): 30.9°F
2019-01-15 11:51 30 20 21 65 320° 12 - 30.05 30.07 10 CLR None
2019-01-15 10:51 28 18 19 65 320° 9 - 30.08 30.10 10 CLR None
2019-01-15 09:51 26 17 16 68 310° 10 - 30.09 30.11 10 SCT038 None
2019-01-15 08:51 23 14 17 67 310° 5 - 30.07 30.09 10 CLR None
2019-01-15 07:51 18 10 10 70 330° 6 - 30.06 30.08 10 CLR None
2019-01-15 06:51 16 8 6 70 310° 7 - 30.05 30.07 10 CLR 6-hr Min Temp (7am): 9.0°F
6-hr Max Temp (7am): 18.0°F
2019-01-15 05:51 18 8 6 64 300° 10 - 30.04 30.06 10 CLR None
2019-01-15 04:51 16 7 10 66 320° 3 - 30.03 30.05 10 CLR None
2019-01-15 03:51 16 8 6 70 300° 7 - 30.03 30.05 10 CLR None
2019-01-15 02:51 14 7 5 73 310° 6 - 30.04 30.05 10 CLR None
2019-01-15 01:51 9 5 - 83 - Calm - 30.04 30.06 10 CLR None
2019-01-15 00:51 10 8 - 91 - Calm - 30.05 30.06 10 CLR 6-hr Min Temp (1am): 10.0°F
6-hr Max Temp (1am): 23.0°F
2019-01-14 23:51 13 8 7 80 310° 3 - 30.06 30.08 10 CLR 24-hr Min Temp (12am): 1.9°F
24-hr Max Temp (12am): 30.0°F
2019-01-14 22:51 16 9 - 73 - Calm - 30.08 30.10 10 CLR None
2019-01-14 21:51 15 11 - 83 - Calm - 30.09 30.11 10 CLR None
2019-01-14 20:51 18 10 - 70 - Calm - 30.09 30.11 10 CLR None
2019-01-14 19:51 22 10 - 59 - Calm - 30.09 30.11 10 CLR None
2019-01-14 18:51 22 10 14 59 300° 6 - 30.10 30.12 10 CLR 6-hr Min Temp (7pm): 21.0°F
6-hr Max Temp (7pm): 30.0°F

Support USWX by starting your Amazon purchase here.